Time;durP1;ratioP1;P1;durP2;ratioP2;P2;SDS_P1;SDS_P2;PMS_P1;PMS_P2;Temp;Humidity;BMP_temperature;BMP_pressure;BME280_temperature;BME280_humidity;BME280_pressure;Samples;Min_cycle;Max_cycle;Signal;HPM_P1;HPM_P2
2022/05/31 00:01:37;;;;;;;;;;;;;;;9.08;100.00;95296.44;10480081;28;2266;-74
2022/05/31 00:06:41;;;;;;;;;;;;;;;8.99;100.00;95283.91;10491556;28;2183;-75
2022/05/31 00:11:45;;;;;;;;;;;;;;;8.96;100.00;95285.25;10489756;28;2309;-75
2022/05/31 00:16:49;;;;;;;;;;;;;;;8.81;100.00;95286.13;10506400;28;2188;-74
2022/05/31 00:21:51;;;;;;;;;;;9.80;99.90;;;8.81;100.00;95288.00;10499063;28;2178;-74
2022/05/31 00:26:55;;;;;;;;;;;9.80;99.90;;;8.77;100.00;95289.59;10504526;28;2355;-73
2022/05/31 00:31:59;;;;;;;;;;;9.80;99.90;;;8.71;100.00;95282.66;10501107;28;2357;-74
2022/05/31 00:37:02;;;;;;;;;;;9.80;99.90;;;8.71;100.00;95280.78;10512282;28;2223;-74
2022/05/31 00:42:05;;;;;;;;;;;9.80;99.90;;;8.71;100.00;95278.09;10481366;28;2280;-75
2022/05/31 00:47:08;;;;;;;;;;;9.80;99.90;;;8.61;100.00;95283.50;10505874;28;2211;-74
2022/05/31 00:52:12;;;;;;;;;;;9.70;99.90;;;8.61;100.00;95284.31;10508776;28;2238;-74
2022/05/31 00:57:15;;;;;;;;;;;9.70;99.90;;;8.63;100.00;95281.34;10507651;28;2293;-74
2022/05/31 01:02:18;;;;;;;;;;;9.70;99.90;;;8.58;100.00;95273.31;10485629;28;2242;-74
2022/05/31 01:07:21;;;;;;;;;;;9.70;99.90;;;8.53;100.00;95274.16;10512506;28;2156;-74
2022/05/31 01:12:25;;;;;;;;;;;9.60;99.90;;;8.53;100.00;95276.84;10497127;28;2311;-73
2022/05/31 01:17:28;;;;;;;;;;;9.50;99.90;;;8.57;100.00;95275.22;10493008;28;2388;-74
2022/05/31 01:22:38;;;;;;;;;;;9.60;99.90;;;8.51;100.00;95272.81;10479721;28;2406;-74
2022/05/31 01:27:42;;;;;;;;;;;9.60;99.90;;;8.56;100.00;95270.13;10505596;28;2755;-74
2022/05/31 01:32:53;;;;;;;;;;;9.50;99.90;;;8.56;100.00;95275.50;10481838;28;2399;-75
2022/05/31 01:37:58;;;;;;;;;;;;;;;8.63;100.00;95262.59;10492727;28;2357;-74
2022/05/31 01:43:01;;;;;;;;;;;9.80;99.90;;;8.73;100.00;95259.91;10487986;28;2383;-74
2022/05/31 01:48:05;;;;;;;;;;;9.60;99.90;;;8.80;100.00;95256.91;10482247;28;2305;-75
2022/05/31 01:53:08;;;;;;;;;;;;;;;8.83;99.74;95245.63;10498101;28;2354;-73
2022/05/31 01:58:12;;;;;;;;;;;9.20;99.90;;;8.74;100.00;95247.28;10506680;28;2457;-74
2022/05/31 02:03:16;;;;;;;;;;;;;;;8.81;99.87;95235.19;10500652;28;2428;-74
2022/05/31 02:08:19;;;;;;;;;;;8.30;99.90;;;8.78;99.91;95234.94;10500918;28;2429;-74
2022/05/31 02:13:25;;;;;;;;;;;;;;;8.75;99.46;95241.66;10494845;28;2338;-75
2022/05/31 02:19:15;;;;;;;;;;;;;;;8.67;99.89;95250.28;10505456;28;2240;-73
2022/05/31 02:23:53;;;;;;;;;;;;;;;8.64;99.96;95248.13;10475096;28;2361;-74
2022/05/31 02:28:57;;;;;;;;;;;;;;;8.62;99.94;95243.03;10502742;28;2390;-74
2022/05/31 02:34:00;;;;;;;;;;;9.60;99.90;;;8.61;99.51;95246.00;10478354;28;2348;-74
2022/05/31 02:39:04;;;;;;;;;;;;;;;8.59;99.69;95248.97;10484829;28;2336;-74
2022/05/31 02:44:07;;;;;;;;;;;;;;;8.66;99.61;95260.19;10502287;28;2521;-74
2022/05/31 02:49:11;;;;;;;;;;;;;;;8.75;99.47;95264.97;10506449;28;2329;-74
2022/05/31 02:54:14;;;;;;;;;;;;;;;8.80;98.47;95264.97;10496783;28;2310;-74
2022/05/31 02:59:18;;;;;;;;;;;8.60;99.90;;;8.89;97.84;95274.03;10487153;28;2344;-74
2022/05/31 03:04:21;;;;;;;;;;;;;;;8.89;97.13;95272.13;10503425;28;2294;-74
2022/05/31 03:09:25;;;;;;;;;;;;;;;8.93;97.19;95275.09;10504915;28;2337;-73
2022/05/31 03:14:29;;;;;;;;;;;;;;;8.96;97.52;95271.84;10487836;28;2360;-74
2022/05/31 03:19:32;;;;;;;;;;;9.90;99.90;;;9.07;96.92;95272.59;10517138;28;2429;-74
2022/05/31 03:24:35;;;;;;;;;;;10.00;99.90;;;9.12;97.15;95272.59;10509436;28;2501;-74
2022/05/31 03:29:38;;;;;;;;;;;;;;;9.16;97.34;95273.63;10499680;28;2225;-73
2022/05/31 03:34:41;;;;;;;;;;;10.00;99.90;;;9.07;97.55;95276.09;10488722;28;2393;-73
2022/05/31 03:39:44;;;;;;;;;;;10.00;99.90;;;8.96;98.63;95282.56;10498098;28;2271;-73
2022/05/31 03:44:47;;;;;;;;;;;9.90;99.90;;;8.88;98.62;95285.81;10529664;28;2373;-74
2022/05/31 03:49:51;;;;;;;;;;;9.80;99.90;;;8.80;99.39;95283.72;10516899;28;2405;-74
2022/05/31 03:54:54;;;;;;;;;;;9.80;99.90;;;8.88;99.84;95283.94;10503480;28;2484;-75
2022/05/31 03:59:57;;;;;;;;;;;9.80;99.90;;;8.69;99.63;95280.25;10487577;28;2629;-74
2022/05/31 04:05:00;;;;;;;;;;;;;;;8.55;100.00;95284.59;10491217;28;2244;-74
2022/05/31 04:10:04;;;;;;;;;;;;;;;8.50;100.00;95285.41;10505576;28;2401;-74
2022/05/31 04:15:07;;;;;;;;;;;9.40;99.90;;;8.75;100.00;95287.22;10496442;28;2319;-74
2022/05/31 04:20:12;;;;;;;;;;;;;;;8.99;99.59;95290.06;10513615;28;2388;-74
2022/05/31 04:25:16;;;;;;;;;;;;;;;9.25;99.29;95298.00;10506128;28;2534;-74
2022/05/31 04:30:20;;;;;;;;;;;9.90;99.90;;;9.50;97.17;95297.84;10507539;28;2271;-73
2022/05/31 04:35:23;;;;;;;;;;;;;;;9.50;96.92;95308.56;10502523;28;2426;-73
2022/05/31 04:40:27;;;;;;;;;;;10.30;99.90;;;9.49;96.48;95309.66;10489579;28;2396;-74
2022/05/31 04:45:30;;;;;;;;;;;10.30;99.90;;;9.70;96.64;95305.75;10492086;28;2287;-74
2022/05/31 04:50:34;;;;;;;;;;;;;;;9.97;95.03;95307.16;10514322;28;2329;-74
2022/05/31 04:55:39;;;;;;;;;;;;;;;10.15;92.54;95311.84;10504930;28;2091;-74
2022/05/31 05:00:42;;;;;;;;;;;10.80;99.90;;;9.97;94.57;95312.53;10514534;28;2319;-74
2022/05/31 05:05:45;;;;;;;;;;;10.90;99.90;;;9.78;94.92;95308.91;10510940;28;2387;-74
2022/05/31 05:10:48;;;;;;;;;;;;;;;9.61;96.69;95306.63;10487163;28;2363;-74
2022/05/31 05:15:55;;;;;;;;;;;;;;;9.60;98.10;95303.13;10506089;28;2362;-74
2022/05/31 05:20:58;;;;;;;;;;;;;;;10.00;96.54;95309.31;10484316;28;2441;-74
2022/05/31 05:26:02;;;;;;;;;;;;;;;10.48;93.77;95314.81;10502274;28;2386;-74
2022/05/31 05:31:06;;;;;;;;;;;;;;;11.28;89.66;95300.72;10478044;28;2315;-74
2022/05/31 05:36:10;;;;;;;;;;;11.40;99.90;;;11.85;84.98;95304.25;10501236;28;2429;-73
2022/05/31 05:41:13;;;;;;;;;;;12.30;99.90;;;12.11;83.97;95296.59;10498811;28;2318;-73
2022/05/31 05:46:16;;;;;;;;;;;12.60;99.90;;;12.55;80.92;95296.09;10507082;28;2349;-74
2022/05/31 05:51:21;;;;;;;;;;;;;;;13.23;77.28;95299.91;10482012;28;2341;-73
2022/05/31 05:56:28;;;;;;;;;;;13.60;99.90;;;13.72;72.72;95306.44;10488358;28;2255;-74
2022/05/31 06:01:32;;;;;;;;;;;14.00;99.90;;;14.10;69.62;95311.50;10485695;28;2239;-74
2022/05/31 06:06:55;;;;;;;;;;;;;;;14.11;69.19;95308.50;10500789;28;2287;-74
2022/05/31 06:11:58;;;;;;;;;;;14.80;99.90;;;14.33;67.10;95310.41;10497753;28;2159;-74
2022/05/31 06:17:02;;;;;;;;;;;15.00;99.90;;;14.65;65.17;95305.84;10501122;28;2345;-74
2022/05/31 06:22:06;;;;;;;;;;;;;;;13.98;67.21;95320.94;10488671;28;2443;-75
2022/05/31 06:27:09;;;;;;;;;;;15.10;99.90;;;13.44;70.76;95321.91;10480123;28;2318;-75
2022/05/31 06:32:14;;;;;;;;;;;;;;;13.90;70.09;95315.50;10507722;28;2258;-75
2022/05/31 06:37:17;;;;;;;;;;;14.40;99.90;;;14.48;66.55;95312.75;10506892;28;2380;-74
2022/05/31 06:42:20;;;;;;;;;;;14.80;99.90;;;14.54;65.42;95300.69;10483667;28;2240;-75
2022/05/31 06:47:24;;;;;;;;;;;15.40;99.90;;;14.93;65.41;95309.94;10497925;28;2129;-75
2022/05/31 06:57:48;;;;;;;;;;;;;;;15.59;62.88;95291.03;10500997;28;2357;-74
2022/05/31 07:02:53;;;;;;;;;;;;;;;16.18;60.30;95281.34;10487034;28;2248;-74
2022/05/31 07:07:57;;;;;;;;;;;16.60;99.90;;;16.10;60.68;95289.50;10504353;28;2248;-74
2022/05/31 07:13:00;;;;;;;;;;;16.60;99.90;;;16.02;60.27;95290.28;10499054;28;2203;-74
2022/05/31 07:18:05;;;;;;;;;;;16.90;99.90;;;15.75;58.26;95300.31;10490937;28;2203;-74
2022/05/31 07:23:08;;;;;;;;;;;16.70;99.90;;;16.34;58.59;95294.38;10496231;28;2259;-73
2022/05/31 07:28:12;;;;;;;;;;;16.90;99.90;;;15.11;59.83;95292.66;10506860;28;2152;-74
2022/05/31 07:33:14;;;;;;;;;;;16.80;99.90;;;14.99;60.71;95295.19;10496910;28;2177;-75
2022/05/31 07:38:38;;;;;;;;;;;16.10;99.90;;;16.06;58.94;95300.16;10522889;28;2235;-75
2022/05/31 07:43:41;;;;;;;;;;;16.40;99.90;;;16.98;55.60;95292.47;10498238;28;2247;-74
2022/05/31 07:48:46;;;;;;;;;;;;;;;16.59;55.05;95285.41;10499602;28;2349;-74
2022/05/31 07:53:51;;;;;;;;;;;17.50;99.90;;;16.97;53.07;95284.66;10481349;28;2446;-74
2022/05/31 07:58:54;;;;;;;;;;;;;;;16.99;51.56;95275.09;10509860;28;2435;-75
2022/05/31 08:03:58;;;;;;;;;;;18.00;99.90;;;17.23;52.09;95282.63;10512277;28;2200;-75
2022/05/31 08:09:02;;;;;;;;;;;18.00;99.90;;;17.55;53.40;95288.53;10502565;28;2211;-75
2022/05/31 08:14:06;;;;;;;;;;;18.20;99.90;;;17.76;51.03;95286.66;10489950;28;2383;-74
2022/05/31 08:19:10;;;;;;;;;;;;;;;18.09;51.85;95270.41;10508475;28;2228;-74
2022/05/31 08:24:14;;;;;;;;;;;;;;;18.24;48.45;95260.03;10509389;28;2303;-74
2022/05/31 08:29:38;;;;;;;;;;;;;;;17.70;51.19;95265.41;10489567;28;2212;-75
2022/05/31 08:34:41;;;;;;;;;;;;;;;17.97;51.14;95255.94;10489691;28;2072;-75
2022/05/31 08:39:45;;;;;;;;;;;;;;;18.69;49.96;95249.19;10512171;28;2318;-75
2022/05/31 08:44:49;;;;;;;;;;;;;;;18.75;47.15;95241.59;10498575;28;2304;-74
2022/05/31 09:00:35;;;;;;;;;;;;;;;18.81;46.50;95240.22;10507350;28;2668;-77
2022/05/31 09:05:40;;;;;;;;;;;;;;;19.51;45.60;95240.09;10500273;28;2392;-75
2022/05/31 09:10:44;;;;;;;;;;;;;;;19.87;44.68;95231.88;10502411;28;2636;-73
2022/05/31 09:15:48;;;;;;;;;;;;;;;19.94;41.74;95232.09;10486613;28;2240;-74
2022/05/31 09:20:51;;;;;;;;;;;;;;;20.06;40.06;95217.59;10504050;28;2184;-75
2022/05/31 09:25:56;;;;;;;;;;;;;;;19.85;40.74;95220.53;10480809;28;2259;-76
2022/05/31 09:31:00;;;;;;;;;;;;;;;19.61;40.33;95218.66;10485885;28;2411;-77
2022/05/31 09:36:03;;;;;;;;;;;;;;;19.74;39.34;95213.97;10510638;28;2274;-77
2022/05/31 09:41:10;;;;;;;;;;;;;;;19.92;41.15;95212.53;10506889;28;2609;-76
2022/05/31 09:46:13;;;;;;;;;;;;;;;20.30;40.63;95213.97;10492417;28;2244;-78
2022/05/31 09:51:17;;;;;;;;;;;;;;;20.81;39.94;95203.22;10487038;28;2336;-78
2022/05/31 10:01:41;;;;;;;;;;;;;;;20.46;39.12;95203.88;10482830;28;2192;-77
2022/05/31 10:06:45;;;;;;;;;;;;;;;20.86;40.66;95194.75;10512928;28;2263;-78
2022/05/31 10:11:48;;;;;;;;;;;;;;;21.15;39.78;95196.22;10502136;28;2274;-77
2022/05/31 10:16:52;;;;;;;;;;;;;;;21.47;38.89;95186.03;10501534;28;2273;-77
2022/05/31 10:21:56;;;;;;;;;;;;;;;21.68;35.93;95187.66;10504751;28;2337;-76
2022/05/31 10:27:00;;;;;;;;;;;;;;;21.82;37.23;95179.72;10495204;28;2331;-76
2022/05/31 10:32:08;;;;;;;;;;;22.40;99.90;;;21.98;38.66;95177.72;10499710;28;2314;-78
2022/05/31 10:37:12;;;;;;;;;;;;;;;22.83;36.65;95161.28;10480911;28;2180;-77
2022/05/31 10:42:16;;;;;;;;;;;;;;;24.34;32.93;95142.97;10502103;28;2188;-76
2022/05/31 10:47:21;;;;;;;;;;;;;;;24.51;32.11;95137.66;10503532;28;2302;-76
2022/05/31 10:52:25;;;;;;;;;;;;;;;24.52;32.17;95131.00;10503544;28;2318;-77
2022/05/31 10:57:29;;;;;;;;;;;;;;;24.85;31.87;95134.03;10480584;28;2291;-76
2022/05/31 11:02:33;;;;;;;;;;;;;;;25.23;31.43;95130.78;10503346;28;2424;-76
2022/05/31 11:07:37;;;;;;;;;;;;;;;25.40;31.10;95121.06;10487399;28;2216;-77
2022/05/31 11:12:45;;;;;;;;;;;;;;;24.85;31.18;95118.31;10488840;28;2565;-77
2022/05/31 11:17:49;;;;;;;;;;;;;;;25.29;29.84;95122.97;10482704;28;2314;-76
2022/05/31 11:22:53;;;;;;;;;;;;;;;25.29;32.08;95122.97;10496717;28;2538;-76
2022/05/31 11:27:56;;;;;;;;;;;;;;;25.38;30.85;95119.88;10538375;28;2255;-78
2022/05/31 11:33:01;;;;;;;;;;;;;;;25.22;31.85;95126.47;10502841;28;2462;-78
2022/05/31 11:38:04;;;;;;;;;;;;;;;25.75;28.69;95123.22;10512940;28;2374;-77
2022/05/31 11:43:07;;;;;;;;;;;;;;;25.83;29.45;95113.03;10500686;28;2390;-76
2022/05/31 11:48:12;;;;;;;;;;;;;;;25.73;29.95;95122.06;10512307;28;2321;-77
2022/05/31 11:53:15;;;;;;;;;;;;;;;25.69;29.99;95116.47;10505084;28;2309;-78
2022/05/31 11:58:18;;;;;;;;;;;;;;;25.99;29.01;95123.72;10493765;28;2280;-77
2022/05/31 12:03:22;;;;;;;;;;;;;;;26.42;29.40;95107.34;10513668;28;2255;-77
2022/05/31 12:08:27;;;;;;;;;;;26.90;88.50;;;26.27;30.08;95104.50;10503923;28;2302;-76
2022/05/31 12:13:30;;;;;;;;;;;27.10;99.90;;;26.89;29.71;95092.38;10496697;28;2315;-75
2022/05/31 12:18:33;;;;;;;;;;;27.20;92.20;;;26.36;29.59;95095.88;10509925;28;2301;-77
2022/05/31 12:23:36;;;;;;;;;;;27.20;90.70;;;26.59;28.48;95095.50;10499295;28;2350;-77
2022/05/31 12:28:39;;;;;;;;;;;27.20;89.20;;;25.57;29.49;95100.31;10491044;28;2573;-77
2022/05/31 12:33:43;;;;;;;;;;;26.80;88.40;;;24.07;32.03;95112.09;10493466;28;2253;-77
2022/05/31 12:38:47;;;;;;;;;;;25.60;89.00;;;23.52;34.02;95120.00;10515557;28;2299;-78
2022/05/31 12:43:51;;;;;;;;;;;24.50;91.50;;;23.52;34.49;95115.31;10480819;28;2913;-77
2022/05/31 12:48:54;;;;;;;;;;;24.40;92.60;;;23.68;35.10;95112.44;10514437;28;2306;-77
2022/05/31 12:54:03;;;;;;;;;;;24.30;93.50;;;23.78;34.93;95109.00;10501241;28;2302;-76
2022/05/31 12:59:06;;;;;;;;;;;24.40;93.50;;;23.45;34.55;95104.25;10485908;28;2232;-77
2022/05/31 13:04:09;;;;;;;;;;;24.30;92.70;;;24.12;34.44;95104.28;10481285;28;2225;-76
2022/05/31 13:09:12;;;;;;;;;;;24.30;94.00;;;24.22;33.92;95109.09;10517511;28;2302;-77
2022/05/31 13:19:42;;;;;;;;;;;25.20;92.90;;;25.52;30.48;95101.50;10497127;28;2306;-77
2022/05/31 13:24:46;;;;;;;;;;;25.90;89.50;;;24.34;31.60;95104.53;10504330;28;2224;-77
2022/05/31 13:29:49;;;;;;;;;;;25.50;88.10;;;24.57;32.05;95102.41;10510458;28;2214;-78
2022/05/31 13:34:52;;;;;;;;;;;25.20;89.50;;;25.16;30.96;95095.00;10520888;28;2313;-77
2022/05/31 13:39:57;;;;;;;;;;;25.30;89.50;;;25.45;29.91;95095.97;10499519;28;2171;-77
2022/05/31 13:45:00;;;;;;;;;;;25.70;88.20;;;24.08;32.36;95105.41;10510064;28;2714;-78
2022/05/31 13:50:03;;;;;;;;;;;25.30;88.40;;;23.98;34.22;95115.91;10506066;28;2319;-77
2022/05/31 13:55:06;;;;;;;;;;;24.80;91.10;;;23.36;33.82;95123.75;10481809;28;1995;-76
2022/05/31 14:00:10;;;;;;;;;;;24.30;90.70;;;22.56;35.53;95116.63;10479388;28;2318;-76
2022/05/31 14:05:13;;;;;;;;;;;23.70;91.20;;;22.70;34.50;95121.53;10513530;28;2298;-76
2022/05/31 14:10:16;;;;;;;;;;;23.40;90.30;;;22.26;35.57;95149.34;10488879;28;2266;-76
2022/05/31 14:15:19;;;;;;;;;;;23.10;90.60;;;21.81;36.37;95156.28;10470957;28;2329;-76
2022/05/31 14:20:25;;;;;;;;;;;22.80;90.50;;;21.43;44.45;95163.28;10481868;28;2310;-75
2022/05/31 14:25:28;;;;;;;;;;;22.40;96.80;;;20.33;50.66;95174.25;10479396;28;2345;-77
2022/05/31 14:30:31;;;;;;;;;;;21.70;99.90;;;19.69;50.62;95174.09;10488647;28;2314;-78
2022/05/31 14:35:34;;;;;;;;;;;20.90;99.90;;;19.59;57.48;95166.38;10487588;28;2263;-77
2022/05/31 14:40:38;;;;;;;;;;;20.60;99.90;;;19.58;54.48;95166.75;10506738;28;2176;-77
2022/05/31 14:45:41;;;;;;;;;;;20.50;99.90;;;19.38;51.23;95166.53;10488385;28;2185;-77
2022/05/31 14:50:44;;;;;;;;;;;20.30;99.90;;;19.32;49.62;95172.56;10493818;28;2278;-77
2022/05/31 14:55:47;;;;;;;;;;;20.10;99.90;;;19.27;49.19;95197.31;10501201;28;2255;-77
2022/05/31 15:00:50;;;;;;;;;;;20.00;99.90;;;19.12;51.26;95201.56;10485632;28;2210;-77
2022/05/31 15:05:53;;;;;;;;;;;20.10;99.90;;;18.68;54.25;95209.47;10506696;28;2611;-77
2022/05/31 15:21:44;;;;;;;;;;;19.50;99.90;;;19.44;51.19;95205.25;10526172;28;2324;-76
2022/05/31 15:26:47;;;;;;;;;;;19.80;99.90;;;19.66;49.18;95209.47;10541870;28;2279;-77
2022/05/31 15:31:50;;;;;;;;;;;20.10;99.90;;;20.05;46.79;95199.66;10519650;28;2295;-76
2022/05/31 15:37:09;;;;;;;;;;;20.40;99.90;;;20.18;46.10;95197.66;10504619;28;2269;-77
2022/05/31 15:42:12;;;;;;;;;;;20.60;99.90;;;20.41;45.41;95200.59;10508957;28;2424;-77
2022/05/31 15:47:15;;;;;;;;;;;20.80;99.90;;;20.37;45.20;95195.06;10515273;28;2243;-76
2022/05/31 15:52:19;;;;;;;;;;;20.80;99.90;;;21.17;42.93;95193.13;10500549;28;2204;-77
2022/05/31 15:57:22;;;;;;;;;;;21.30;99.90;;;21.77;42.19;95199.19;10519313;28;2369;-77
2022/05/31 16:02:25;;;;;;;;;;;21.80;99.90;;;21.99;41.66;95212.16;10516429;28;2329;-78
2022/05/31 16:07:28;;;;;;;;;;;22.20;99.90;;;21.33;42.03;95199.41;10518459;28;2386;-78
2022/05/31 16:12:33;;;;;;;;;;;22.10;99.90;;;21.21;42.93;95191.28;10497604;28;2395;-77
2022/05/31 16:17:36;;;;;;;;;;;21.90;99.90;;;21.32;40.65;95181.44;10526472;28;2465;-77
2022/05/31 16:22:39;;;;;;;;;;;21.80;99.90;;;21.58;40.14;95175.34;10489447;28;2617;-77
2022/05/31 16:27:43;;;;;;;;;;;22.00;99.90;;;21.45;40.49;95166.47;10512582;28;2240;-76
2022/05/31 16:32:47;;;;;;;;;;;22.10;99.90;;;21.49;39.62;95172.81;10513907;28;2003;-77
2022/05/31 16:43:12;;;;;;;;;;;22.10;99.90;;;21.42;39.54;95171.84;10516676;28;2231;-78
2022/05/31 16:48:15;;;;;;;;;;;22.20;99.90;;;21.41;40.05;95176.53;10520323;28;2246;-78
2022/05/31 16:53:18;;;;;;;;;;;22.10;99.90;;;20.83;41.06;95170.09;10514141;28;2173;-75
2022/05/31 16:58:21;;;;;;;;;;;21.80;99.90;;;20.96;41.00;95175.09;10515813;28;2211;-78
2022/05/31 17:03:24;;;;;;;;;;;21.60;99.90;;;20.56;41.96;95180.75;10511071;28;2179;-77
2022/05/31 17:19:10;;;;;;;;;;;20.60;99.90;;;19.13;45.57;95238.53;10511036;28;2152;-77
2022/05/31 17:24:13;;;;;;;;;;;20.10;99.90;;;18.39;57.52;95253.19;10505212;28;2228;-77
2022/05/31 17:29:16;;;;;;;;;;;19.70;99.90;;;16.98;75.02;95261.81;10493598;28;2219;-75
2022/05/31 17:34:19;;;;;;;;;;;18.60;99.90;;;16.34;81.83;95261.84;10513224;28;2264;-76
2022/05/31 17:39:23;;;;;;;;;;;17.90;99.90;;;15.78;89.68;95255.53;10510521;28;2273;-76
2022/05/31 17:44:27;;;;;;;;;;;17.20;99.90;;;15.53;94.82;95268.72;10503323;28;2255;-77
2022/05/31 17:49:30;;;;;;;;;;;17.10;99.90;;;15.39;93.24;95258.00;10513023;28;2433;-78
2022/05/31 17:54:33;;;;;;;;;;;16.50;99.90;;;15.47;91.92;95267.28;10486309;28;2310;-76
2022/05/31 17:59:36;;;;;;;;;;;16.50;99.90;;;15.59;90.83;95286.41;10493589;28;2196;-78
2022/05/31 18:04:39;;;;;;;;;;;16.50;99.90;;;15.56;88.22;95278.91;10486517;28;2227;-78
2022/05/31 18:09:44;;;;;;;;;;;16.50;99.90;;;15.48;88.81;95287.81;10512820;28;2136;-76
2022/05/31 18:14:47;;;;;;;;;;;16.40;99.90;;;15.48;87.88;95301.38;10495526;28;2207;-76
2022/05/31 18:19:50;;;;;;;;;;;16.30;99.90;;;15.50;87.45;95293.72;10482528;28;2239;-77
2022/05/31 18:24:54;;;;;;;;;;;16.30;99.90;;;15.45;88.15;95306.59;10483675;28;2345;-76
2022/05/31 18:29:59;;;;;;;;;;;16.30;99.90;;;15.37;90.05;95308.19;10485140;28;2325;-77
2022/05/31 18:35:04;;;;;;;;;;;16.30;99.90;;;15.30;91.18;95315.97;10484087;28;2254;-74
2022/05/31 18:40:34;;;;;;;;;;;16.20;99.90;;;15.22;91.89;95319.47;10491199;28;2319;-74
2022/05/31 18:45:37;;;;;;;;;;;16.10;99.90;;;15.09;92.41;95321.19;10483139;28;2136;-76
2022/05/31 18:50:40;;;;;;;;;;;16.00;99.90;;;15.09;92.21;95316.56;10485222;28;2180;-73
2022/05/31 18:55:43;;;;;;;;;;;16.00;99.90;;;15.09;91.08;95321.19;10498503;28;2302;-74
2022/05/31 19:00:46;;;;;;;;;;;15.90;99.90;;;15.00;90.42;95339.28;10502279;28;2125;-75
2022/05/31 19:05:49;;;;;;;;;;;15.80;99.90;;;15.00;89.69;95334.66;10484145;28;2297;-73
2022/05/31 19:10:52;;;;;;;;;;;15.80;99.90;;;15.00;89.78;95345.47;10501909;28;2184;-74
2022/05/31 19:15:55;;;;;;;;;;;15.80;99.90;;;15.00;89.66;95341.97;10500691;28;2220;-74
2022/05/31 19:20:58;;;;;;;;;;;15.80;99.90;;;14.95;89.64;95364.59;10523321;28;2218;-73
2022/05/31 19:26:01;;;;;;;;;;;15.70;99.90;;;14.95;90.13;95380.81;10501650;28;2405;-74
2022/05/31 19:31:04;;;;;;;;;;;15.70;99.90;;;14.88;91.17;95381.25;10501705;28;2154;-75
2022/05/31 19:36:08;;;;;;;;;;;15.70;99.90;;;14.84;91.63;95403.84;10495996;28;2222;-75
2022/05/31 19:41:11;;;;;;;;;;;15.80;99.90;;;14.72;92.91;95409.00;10499964;28;2286;-75
2022/05/31 19:46:14;;;;;;;;;;;15.60;99.90;;;14.66;92.61;95405.63;10504450;28;2140;-76
2022/05/31 19:51:18;;;;;;;;;;;15.60;99.90;;;14.69;92.53;95410.41;10502254;28;2362;-76
2022/05/31 19:56:20;;;;;;;;;;;15.50;99.90;;;14.66;93.15;95415.66;10502309;28;2250;-77
2022/05/31 20:01:24;;;;;;;;;;;15.50;99.90;;;14.68;94.02;95416.13;10507754;28;2176;-76
2022/05/31 20:06:27;;;;;;;;;;;15.50;99.90;;;14.58;94.85;95420.69;10483714;28;2160;-75
2022/05/31 20:11:32;;;;;;;;;;;15.40;99.90;;;14.50;96.31;95428.72;10512754;28;2334;-75
2022/05/31 20:16:41;;;;;;;;;;;15.40;99.90;;;14.40;96.35;95428.94;10495117;28;2235;-75
2022/05/31 20:21:44;;;;;;;;;;;15.30;99.90;;;14.36;96.60;95417.94;10509213;28;2333;-75
2022/05/31 20:26:48;;;;;;;;;;;15.20;99.90;;;14.41;93.75;95420.53;10492245;28;2315;-76
2022/05/31 20:31:50;;;;;;;;;;;15.20;99.90;;;14.49;91.00;95427.94;10490584;28;2156;-75
2022/05/31 20:36:53;;;;;;;;;;;15.30;99.90;;;14.53;90.25;95428.94;10512001;28;2250;-76
2022/05/31 20:41:59;;;;;;;;;;;15.30;99.90;;;14.57;90.67;95426.41;10481025;28;2227;-76
2022/05/31 20:47:03;;;;;;;;;;;15.30;99.90;;;14.52;89.89;95421.91;10506437;28;2314;-76
2022/05/31 20:52:06;;;;;;;;;;;15.40;99.90;;;14.48;90.28;95426.34;10509232;28;2116;-77
2022/05/31 20:57:09;;;;;;;;;;;15.30;99.90;;;14.47;90.88;95427.44;10501001;28;2093;-76
2022/05/31 21:02:13;;;;;;;;;;;15.40;99.90;;;14.44;92.10;95429.91;10503659;28;2231;-76
2022/05/31 21:07:16;;;;;;;;;;;15.30;99.90;;;14.38;94.06;95442.78;10501768;28;2291;-75
2022/05/31 21:12:19;;;;;;;;;;;15.30;99.90;;;14.43;94.90;95444.56;10479198;28;2249;-76
2022/05/31 21:17:22;;;;;;;;;;;15.20;99.90;;;14.28;97.13;95451.13;10502496;28;2262;-76
2022/05/31 21:22:27;;;;;;;;;;;15.20;99.90;;;14.15;98.49;95460.06;10502202;28;2243;-75
2022/05/31 21:27:30;;;;;;;;;;;15.10;99.90;;;14.11;98.63;95469.88;10489682;28;2199;-75
2022/05/31 21:32:36;;;;;;;;;;;15.00;99.90;;;14.09;99.05;95466.69;10499803;28;2315;-76
2022/05/31 21:37:39;;;;;;;;;;;14.90;99.90;;;14.09;98.71;95472.09;10489860;28;2316;-75
2022/05/31 21:42:43;;;;;;;;;;;14.90;99.90;;;14.00;98.29;95467.41;10501273;28;2139;-76
2022/05/31 21:47:46;;;;;;;;;;;14.90;99.90;;;13.80;99.27;95470.50;10502504;28;2204;-75
2022/05/31 21:52:49;;;;;;;;;;;14.80;99.90;;;13.59;100.00;95467.41;10492709;28;2481;-75
2022/05/31 21:57:52;;;;;;;;;;;;;;;13.48;100.00;95460.59;10498015;28;2240;-74
2022/05/31 22:02:56;;;;;;;;;;;;;;;13.34;100.00;95455.19;10490605;28;2385;-75
2022/05/31 22:08:01;;;;;;;;;;;;;;;13.23;100.00;95441.09;10495414;28;2597;-75
2022/05/31 22:13:04;;;;;;;;;;;;;;;13.13;100.00;95443.13;10496488;28;2417;-77
2022/05/31 22:18:08;;;;;;;;;;;;;;;13.06;100.00;95442.72;10501452;28;2294;-75
2022/05/31 22:23:12;;;;;;;;;;;;;;;12.90;100.00;95447.56;10491260;28;2382;-75
2022/05/31 22:28:17;;;;;;;;;;;;;;;12.82;100.00;95467.13;10481155;28;2625;-75
2022/05/31 22:33:21;;;;;;;;;;;;;;;12.73;100.00;95472.41;10503669;28;2661;-76
2022/05/31 22:38:25;;;;;;;;;;;;;;;12.67;100.00;95476.28;10505478;28;2302;-76
2022/05/31 22:43:32;;;;;;;;;;;;;;;12.61;100.00;95475.56;10522350;28;2183;-76
2022/05/31 22:48:36;;;;;;;;;;;;;;;12.57;100.00;95487.22;10519494;28;1491;-74
2022/05/31 22:53:40;;;;;;;;;;;;;;;12.59;100.00;95488.50;10486111;28;2637;-75
2022/05/31 22:58:44;;;;;;;;;;;;;;;12.55;100.00;95489.41;10496997;28;2489;-75
2022/05/31 23:03:48;;;;;;;;;;;;;;;12.45;100.00;95483.06;10484875;28;2320;-76
2022/05/31 23:08:52;;;;;;;;;;;;;;;12.34;100.00;95481.63;10489409;28;2312;-76
2022/05/31 23:13:56;;;;;;;;;;;;;;;12.26;100.00;95476.88;10505164;28;2489;-75
2022/05/31 23:19:00;;;;;;;;;;;;;;;12.26;100.00;95484.94;10512630;28;2304;-75
2022/05/31 23:24:04;;;;;;;;;;;;;;;12.23;100.00;95477.47;10476969;28;2438;-75
2022/05/31 23:29:08;;;;;;;;;;;;;;;12.29;100.00;95479.00;10520335;28;2280;-76
2022/05/31 23:34:12;;;;;;;;;;;;;;;12.23;100.00;95474.78;10515559;28;2461;-76
2022/05/31 23:39:16;;;;;;;;;;;;;;;12.13;100.00;95469.50;10492000;28;2183;-74
2022/05/31 23:44:19;;;;;;;;;;;;;;;12.08;100.00;95474.97;10508004;28;2163;-74
2022/05/31 23:49:23;;;;;;;;;;;;;;;12.09;100.00;95474.69;10519466;28;2262;-75
2022/05/31 23:54:27;;;;;;;;;;;;;;;12.09;100.00;95474.69;10489908;28;2235;-74
2022/05/31 23:59:30;;;;;;;;;;;;;;;12.19;100.00;95471.03;10487060;28;2133;-75
